Time;durP1;ratioP1;P1;durP2;ratioP2;P2;SDS_P1;SDS_P2;PMS_P1;PMS_P2;Temp;Humidity;BMP_temperature;BMP_pressure;BME280_temperature;BME280_humidity;BME280_pressure;Samples;Min_cycle;Max_cycle;Signal;HPM_P1;HPM_P2
2023/07/12 00:00:00;;;;;;;5.05;4.55;;;;;;;;;;6228271;28;20030;-71
2023/07/12 00:03:00;;;;;;;5.83;4.47;;;;;;;;;;6230267;28;20144;-71
2023/07/12 00:06:00;;;;;;;4.43;3.93;;;;;;;;;;6233662;28;20280;-72
2023/07/12 00:09:01;;;;;;;5.00;4.20;;;;;;;;;;6242596;28;20272;-72
2023/07/12 00:12:01;;;;;;;4.70;4.17;;;;;;;;;;6240565;28;20397;-72
2023/07/12 00:15:01;;;;;;;6.90;4.80;;;;;;;;;;6241609;28;20589;-72
2023/07/12 00:18:01;;;;;;;4.67;3.83;;;;;;;;;;6243045;28;20276;-72
2023/07/12 00:21:02;;;;;;;5.20;4.37;;;;;;;;;;6240892;28;22071;-70
2023/07/12 00:24:03;;;;;;;6.35;4.10;;;;;;;;;;6239753;28;20288;-72
2023/07/12 00:27:03;;;;;;;5.00;4.38;;;;;;;;;;6241855;28;20025;-72
2023/07/12 00:30:16;;;;;;;5.75;4.07;;;;;;;;;;6226522;28;20026;-72
2023/07/12 00:33:17;;;;;;;4.78;4.15;;;;;;;;;;6236822;28;20418;-72
2023/07/12 00:36:27;;;;;;;4.57;4.07;;;;;;;;;;6235868;28;20017;-72
2023/07/12 00:39:28;;;;;;;4.45;4.05;;;;;;;;;;6240632;28;20168;-70
2023/07/12 00:42:33;;;;;;;5.32;4.28;;;;;;;;;;6239421;28;20409;-71
2023/07/12 00:45:33;;;;;;;5.15;4.50;;;;;;;;;;6236310;28;20375;-71
2023/07/12 00:48:34;;;;;;;5.05;4.18;;;;;;;;;;6237984;28;20078;-71
2023/07/12 00:51:54;;;;;;;5.00;4.33;;;;;;;;;;6238142;28;20034;-70
2023/07/12 00:54:59;;;;;;;4.70;4.30;;;;;;;;;;6240729;28;20349;-71
2023/07/12 00:58:00;;;;;;;6.00;3.88;;;;;;;;;;6237969;28;20017;-73
2023/07/12 01:01:02;;;;;;;6.80;4.20;;;;;;;;;;6240064;28;20036;-71
2023/07/12 01:04:03;;;;;;;5.40;3.88;;;;;;;;;;6240205;28;20084;-72
2023/07/12 01:07:03;;;;;;;6.18;4.50;;;;;;;;;;6237275;28;20028;-72
2023/07/12 01:10:04;;;;;;;5.78;4.63;;;;;;;;;;6242088;28;20473;-72
2023/07/12 01:13:05;;;;;;;4.63;4.13;;;;;;;;;;6231987;28;20017;-73
2023/07/12 01:16:05;;;;;;;5.55;4.50;;;;;;;;;;6236891;28;20048;-71
2023/07/12 01:19:05;;;;;;;5.90;4.15;;;;;;;;;;6234357;28;20068;-72
2023/07/12 01:22:06;;;;;;;5.75;4.50;;;;;;;;;;6237955;28;20502;-72
2023/07/12 01:25:07;;;;;;;4.72;4.30;;;;;;;;;;6239254;28;20470;-72
2023/07/12 01:28:07;;;;;;;5.85;4.40;;;;;;;;;;6239008;28;20039;-72
2023/07/12 01:31:07;;;;;;;5.80;4.75;;;;;;;;;;6238959;28;20202;-73
2023/07/12 01:34:08;;;;;;;8.32;5.15;;;;;;;;;;6235900;28;20041;-72
2023/07/12 01:37:08;;;;;;;7.18;6.47;;;;;;;;;;6240101;28;20379;-73
2023/07/12 01:40:08;;;;;;;8.23;6.33;;;;;;;;;;6241154;28;20037;-73
2023/07/12 01:43:09;;;;;;;7.85;5.22;;;;;;;;;;6236837;28;20276;-72
2023/07/12 01:46:09;;;;;;;7.00;5.50;;;;;;;;;;6240854;28;20108;-72
2023/07/12 01:49:09;;;;;;;7.28;5.38;;;;;;;;;;6239115;28;20032;-71
2023/07/12 01:52:10;;;;;;;7.87;5.67;;;;;;;;;;6239519;28;20115;-71
2023/07/12 01:55:10;;;;;;;9.88;5.68;;;;;;;;;;6239613;28;20014;-72
2023/07/12 01:58:10;;;;;;;8.85;4.72;;;;;;;;;;6252744;28;20029;-72
2023/07/12 02:01:11;;;;;;;12.68;3.97;;;;;;;;;;6258348;28;20061;-73
2023/07/12 02:04:11;;;;;;;7.97;3.58;;;;;;;;;;6248005;28;20021;-72
2023/07/12 02:07:11;;;;;;;5.37;2.73;;;;;;;;;;6245738;28;20029;-72
2023/07/12 02:10:14;;;;;;;8.23;2.80;;;;;;;;;;6249831;28;20272;-71
2023/07/12 02:13:14;;;;;;;5.78;2.38;;;;;;;;;;6246835;28;20108;-72
2023/07/12 02:16:14;;;;;;;5.82;2.40;;;;;;;;;;6247812;28;20470;-72
2023/07/12 02:19:15;;;;;;;5.07;2.40;;;;;;;;;;6237174;28;20449;-71
2023/07/12 02:22:15;;;;;;;7.23;2.33;;;;;;;;;;6247887;28;20632;-72
2023/07/12 02:25:16;;;;;;;9.53;1.90;;;;;;;;;;6242360;28;20025;-72
2023/07/12 02:28:17;;;;;;;2.50;1.52;;;;;;;;;;6248304;28;20029;-72
2023/07/12 02:31:19;;;;;;;4.87;1.80;;;;;;;;;;6248934;28;20026;-72
2023/07/12 02:34:19;;;;;;;4.30;1.80;;;;;;;;;;6251602;28;20276;-71
2023/07/12 02:37:19;;;;;;;3.80;1.67;;;;;;;;;;6243030;28;20048;-72
2023/07/12 02:40:20;;;;;;;6.67;1.27;;;;;;;;;;6246219;28;20502;-72
2023/07/12 02:43:20;;;;;;;3.10;1.50;;;;;;;;;;6249663;28;20727;-73
2023/07/12 02:46:20;;;;;;;3.17;1.27;;;;;;;;;;6247891;28;20495;-71
2023/07/12 02:49:20;;;;;;;5.90;1.73;;;;;;;;;;6250531;28;20082;-72
2023/07/12 02:52:20;;;;;;;4.60;1.40;;;;;;;;;;6249414;28;20010;-72
2023/07/12 02:55:21;;;;;;;2.17;0.97;;;;;;;;;;6249267;28;20033;-72
2023/07/12 02:58:21;;;;;;;3.80;1.30;;;;;;;;;;6244762;28;20029;-72
2023/07/12 03:01:21;;;;;;;1.60;1.00;;;;;;;;;;6247350;28;20291;-72
2023/07/12 03:04:22;;;;;;;4.17;1.30;;;;;;;;;;6247924;28;20048;-72
2023/07/12 03:07:22;;;;;;;3.55;1.20;;;;;;;;;;6243082;28;20279;-72
2023/07/12 03:10:22;;;;;;;2.63;1.00;;;;;;;;;;6246490;28;20561;-73
2023/07/12 03:13:22;;;;;;;1.93;0.97;;;;;;;;;;6242898;28;20283;-72
2023/07/12 03:16:23;;;;;;;1.83;0.90;;;;;;;;;;6245793;28;20451;-72
2023/07/12 03:19:23;;;;;;;1.65;0.82;;;;;;;;;;6246922;28;20028;-72
2023/07/12 03:22:23;;;;;;;3.25;0.98;;;;;;;;;;6245092;28;20025;-72
2023/07/12 03:25:23;;;;;;;2.13;1.17;;;;;;;;;;6245702;28;20048;-72
2023/07/12 03:28:24;;;;;;;1.27;0.80;;;;;;;;;;6245855;28;20711;-72
2023/07/12 03:31:25;;;;;;;2.03;1.00;;;;;;;;;;6244179;28;20768;-71
2023/07/12 03:34:25;;;;;;;1.40;1.00;;;;;;;;;;6242568;28;20037;-72
2023/07/12 03:37:25;;;;;;;1.93;0.90;;;;;;;;;;6238624;28;20028;-71
2023/07/12 03:40:26;;;;;;;1.53;0.93;;;;;;;;;;6242037;28;20288;-72
2023/07/12 03:43:26;;;;;;;3.42;0.98;;;;;;;;;;6244867;28;20079;-71
2023/07/12 03:46:26;;;;;;;1.00;0.70;;;;;;;;;;6243450;28;20021;-73
2023/07/12 03:49:27;;;;;;;2.77;0.90;;;;;;;;;;6237499;28;20821;-71
2023/07/12 03:52:27;;;;;;;2.33;0.77;;;;;;;;;;6243877;28;20033;-71
2023/07/12 03:55:28;;;;;;;1.65;0.60;;;;;;;;;;6240364;28;20019;-72
2023/07/12 03:58:29;;;;;;;1.67;0.90;;;;;;;;;;6240969;28;20029;-71
2023/07/12 04:01:29;;;;;;;3.63;1.55;;;;;;;;;;6241163;28;20031;-71
2023/07/12 04:04:30;;;;;;;1.67;1.33;;;;;;;;;;6244093;28;20029;-71
2023/07/12 04:07:30;;;;;;;1.50;1.10;;;;;;;;;;6239487;28;20083;-71
2023/07/12 04:10:31;;;;;;;1.65;1.10;;;;;;;;;;6241604;28;20040;-70
2023/07/12 04:13:32;;;;;;;2.17;0.77;;;;;;;;;;6236410;28;20056;-70
2023/07/12 04:16:32;;;;;;;1.20;0.70;;;;;;;;;;6238085;28;20071;-70
2023/07/12 04:19:32;;;;;;;2.90;0.95;;;;;;;;;;6239693;28;20025;-72
2023/07/12 04:22:33;;;;;;;1.93;0.87;;;;;;;;;;6239285;28;20093;-72
2023/07/12 04:25:33;;;;;;;0.98;0.73;;;;;;;;;;6242532;28;20288;-73
2023/07/12 04:28:37;;;;;;;2.17;0.90;;;;;;;;;;6242617;28;20013;-72
2023/07/12 04:31:37;;;;;;;2.25;0.70;;;;;;;;;;6237617;28;20009;-72
2023/07/12 04:34:38;;;;;;;0.80;0.50;;;;;;;;;;6236742;28;20087;-72
2023/07/12 04:37:43;;;;;;;1.35;0.60;;;;;;;;;;6243618;28;20040;-72
2023/07/12 04:40:50;;;;;;;0.75;0.50;;;;;;;;;;6234793;28;20029;-72
2023/07/12 04:43:51;;;;;;;1.33;0.80;;;;;;;;;;6241589;28;20037;-73
2023/07/12 04:46:51;;;;;;;0.60;0.50;;;;;;;;;;6239977;28;20025;-72
2023/07/12 04:49:51;;;;;;;1.97;1.07;;;;;;;;;;6245174;28;20284;-73
2023/07/12 04:52:51;;;;;;;1.15;0.70;;;;;;;;;;6242404;28;20121;-72
2023/07/12 04:55:52;;;;;;;0.77;0.60;;;;;;;;;;6246703;28;20049;-72
2023/07/12 04:58:53;;;;;;;0.63;0.55;;;;;;;;;;6249812;28;20068;-71
2023/07/12 05:01:53;;;;;;;0.70;0.63;;;;;;;;;;6242719;28;20479;-72
2023/07/12 05:04:53;;;;;;;0.88;0.63;;;;;;;;;;6242740;28;20100;-71
2023/07/12 05:07:54;;;;;;;0.70;0.50;;;;;;;;;;6237389;28;20017;-72
2023/07/12 05:10:58;;;;;;;4.25;0.70;;;;;;;;;;6236107;28;20283;-72
2023/07/12 05:13:58;;;;;;;0.77;0.70;;;;;;;;;;6241683;28;20084;-72
2023/07/12 05:16:59;;;;;;;2.40;0.68;;;;;;;;;;6238782;28;20029;-70
2023/07/12 05:19:59;;;;;;;0.83;0.70;;;;;;;;;;6240877;28;20402;-72
2023/07/12 05:22:59;;;;;;;1.88;0.80;;;;;;;;;;6241276;28;20346;-69
2023/07/12 05:25:59;;;;;;;2.13;0.97;;;;;;;;;;6239163;28;20029;-70
2023/07/12 05:29:00;;;;;;;2.07;0.80;;;;;;;;;;6238542;28;20274;-68
2023/07/12 05:32:00;;;;;;;4.13;0.73;;;;;;;;;;6238293;28;20374;-70
2023/07/12 05:35:00;;;;;;;1.75;0.90;;;;;;;;;;6239140;28;20280;-72
2023/07/12 05:38:00;;;;;;;3.77;0.80;;;;;;;;;;6230988;28;20083;-72
2023/07/12 05:41:01;;;;;;;1.53;0.90;;;;;;;;;;6236971;28;20013;-70
2023/07/12 05:44:01;;;;;;;1.00;0.90;;;;;;;;;;6235806;28;20059;-72
2023/07/12 05:47:01;;;;;;;2.07;0.90;;;;;;;;;;6233817;28;20087;-71
2023/07/12 05:50:02;;;;;;;0.67;0.57;;;;;;;;;;6236016;28;20264;-73
2023/07/12 05:53:02;;;;;;;1.33;0.80;;;;;;;;;;6238314;28;20302;-73
2023/07/12 05:56:03;;;;;;;1.60;0.90;;;;;;;;;;6240076;28;20458;-74
2023/07/12 05:59:04;;;;;;;1.88;0.80;;;;;;;;;;6251148;28;20029;-73
2023/07/12 06:02:06;;;;;;;1.73;0.70;;;;;;;;;;6247406;28;20056;-75
2023/07/12 06:05:06;;;;;;;4.82;0.85;;;;;;;;;;6247135;28;20030;-76
2023/07/12 06:08:07;;;;;;;1.77;0.93;;;;;;;;;;6243682;28;20040;-72
2023/07/12 06:11:07;;;;;;;1.60;1.00;;;;;;;;;;6239820;28;20034;-70
2023/07/12 06:14:07;;;;;;;1.70;1.00;;;;;;;;;;6241366;28;20037;-72
2023/07/12 06:17:08;;;;;;;1.70;0.93;;;;;;;;;;6236412;28;20291;-73
2023/07/12 06:20:08;;;;;;;2.47;1.30;;;;;;;;;;6236008;28;20292;-69
2023/07/12 06:23:08;;;;;;;2.17;1.13;;;;;;;;;;6236695;28;20280;-70
2023/07/12 06:26:09;;;;;;;2.03;0.90;;;;;;;;;;6238800;28;20041;-71
2023/07/12 06:29:09;;;;;;;1.43;0.80;;;;;;;;;;6237405;28;20017;-70
2023/07/12 06:32:10;;;;;;;1.17;0.80;;;;;;;;;;6243099;28;21006;-70
2023/07/12 06:35:11;;;;;;;4.28;0.98;;;;;;;;;;6245685;28;20260;-69
2023/07/12 06:38:12;;;;;;;1.55;1.00;;;;;;;;;;6246386;28;20064;-70
2023/07/12 06:41:12;;;;;;;1.65;1.10;;;;;;;;;;6241303;28;20091;-70
2023/07/12 06:44:12;;;;;;;1.90;1.10;;;;;;;;;;6250066;28;20024;-69
2023/07/12 06:47:12;;;;;;;3.93;1.10;;;;;;;;;;6244262;28;20438;-70
2023/07/12 06:50:13;;;;;;;1.80;1.00;;;;;;;;;;5893895;28;10000092;-70
2023/07/12 06:53:13;;;;;;;2.47;0.90;;;;;;;;;;6244405;28;20312;-70
2023/07/12 06:56:13;;;;;;;1.97;1.00;;;;;;;;;;6239817;28;20026;-70
2023/07/12 06:59:14;;;;;;;1.42;0.98;;;;;;;;;;6239549;28;20393;-69
2023/07/12 07:02:14;;;;;;;1.93;1.20;;;;;;;;;;6238168;28;20113;-70
2023/07/12 07:05:15;;;;;;;2.33;0.90;;;;;;;;;;6243340;28;20021;-70
2023/07/12 07:08:16;;;;;;;2.93;1.10;;;;;;;;;;6244569;28;20017;-70
2023/07/12 07:11:16;;;;;;;5.35;1.05;;;;;;;;;;6234020;28;20478;-70
2023/07/12 07:14:16;;;;;;;2.83;1.10;;;;;;;;;;6239388;28;20029;-70
2023/07/12 07:17:17;;;;;;;1.83;1.03;;;;;;;;;;6242351;28;20091;-70
2023/07/12 07:20:17;;;;;;;0.90;0.80;;;;;;;;;;6244876;28;20021;-71
2023/07/12 07:23:17;;;;;;;3.47;1.23;;;;;;;;;;6243623;28;20029;-70
2023/07/12 07:26:18;;;;;;;2.05;1.00;;;;;;;;;;6237052;28;20044;-71
2023/07/12 07:29:18;;;;;;;3.75;0.90;;;;;;;;;;6237834;28;20284;-71
2023/07/12 07:32:18;;;;;;;2.07;1.10;;;;;;;;;;6236169;28;20052;-70
2023/07/12 07:35:19;;;;;;;1.53;0.93;;;;;;;;;;6241902;28;20280;-70
2023/07/12 07:38:19;;;;;;;2.00;1.02;;;;;;;;;;6241908;28;20044;-68
2023/07/12 07:41:20;;;;;;;1.92;1.08;;;;;;;;;;6243591;28;20497;-70
2023/07/12 07:44:20;;;;;;;1.13;0.87;;;;;;;;;;6236750;28;20021;-71
2023/07/12 07:47:20;;;;;;;1.60;1.00;;;;;;;;;;6240953;28;20260;-71
2023/07/12 07:50:20;;;;;;;2.95;0.95;;;;;;;;;;6236317;28;20131;-71
2023/07/12 07:53:21;;;;;;;1.90;1.17;;;;;;;;;;6250251;28;20067;-73
2023/07/12 07:56:21;;;;;;;2.00;1.10;;;;;;;;;;6259249;28;20805;-72
2023/07/12 07:59:21;;;;;;;3.60;1.30;;;;;;;;;;6251890;28;20036;-72
2023/07/12 08:02:22;;;;;;;1.73;1.15;;;;;;;;;;6248915;28;20314;-71
2023/07/12 08:05:23;;;;;;;4.38;1.40;;;;;;;;;;6240600;28;20026;-71
2023/07/12 08:08:23;;;;;;;3.50;1.37;;;;;;;;;;6240367;28;20053;-71
2023/07/12 08:11:23;;;;;;;1.48;1.17;;;;;;;;;;6239266;28;20249;-71
2023/07/12 08:14:24;;;;;;;1.70;1.23;;;;;;;;;;6240239;28;20949;-71
2023/07/12 08:17:24;;;;;;;1.92;1.27;;;;;;;;;;6237648;28;20497;-71
2023/07/12 08:20:25;;;;;;;1.30;1.20;;;;;;;;;;6242030;28;20116;-72
2023/07/12 08:23:27;;;;;;;1.17;0.90;;;;;;;;;;6248120;28;20025;-70
2023/07/12 08:26:27;;;;;;;2.80;1.30;;;;;;;;;;6245879;28;20431;-72
2023/07/12 08:29:28;;;;;;;3.93;1.30;;;;;;;;;;6254031;28;20032;-72
2023/07/12 08:32:29;;;;;;;1.97;1.20;;;;;;;;;;6252617;28;20032;-72
2023/07/12 08:35:29;;;;;;;3.15;1.20;;;;;;;;;;6239018;28;20030;-72
2023/07/12 08:38:31;;;;;;;1.60;1.30;;;;;;;;;;6242763;28;20032;-72
2023/07/12 08:41:31;;;;;;;2.22;1.40;;;;;;;;;;6245606;28;20045;-71
2023/07/12 08:44:32;;;;;;;5.95;1.20;;;;;;;;;;6241082;28;20044;-72
2023/07/12 08:47:37;;;;;;;1.92;1.15;;;;;;;;;;6239694;28;20055;-72
2023/07/12 08:50:39;;;;;;;2.60;1.20;;;;;;;;;;6233780;28;20148;-72
2023/07/12 08:53:40;;;;;;;1.98;1.30;;;;;;;;;;6236837;28;20033;-71
2023/07/12 08:56:41;;;;;;;2.38;1.55;;;;;;;;;;6240579;28;20033;-70
2023/07/12 08:59:41;;;;;;;1.92;1.20;;;;;;;;;;6242051;28;20092;-71
2023/07/12 09:02:42;;;;;;;2.45;1.25;;;;;;;;;;6241187;28;20061;-71
2023/07/12 09:05:42;;;;;;;2.63;1.20;;;;;;;;;;6254608;28;20037;-70
2023/07/12 09:08:45;;;;;;;3.00;1.38;;;;;;;;;;6239668;28;20032;-72
2023/07/12 09:11:46;;;;;;;2.47;1.10;;;;;;;;;;6234339;28;20054;-70
2023/07/12 09:14:51;;;;;;;1.65;1.23;;;;;;;;;;6233539;28;20026;-72
2023/07/12 09:17:51;;;;;;;2.08;1.15;;;;;;;;;;6237754;28;20073;-71
2023/07/12 09:20:52;;;;;;;1.27;1.07;;;;;;;;;;6239107;28;20549;-72
2023/07/12 09:23:53;;;;;;;2.28;1.30;;;;;;;;;;6237356;28;20037;-69
2023/07/12 09:27:12;;;;;;;3.03;1.20;;;;;;;;;;6236435;28;20017;-71
2023/07/12 09:30:17;;;;;;;3.40;1.05;;;;;;;;;;6239062;28;20083;-71
2023/07/12 09:33:21;;;;;;;1.60;1.30;;;;;;;;;;6236224;28;20052;-72
2023/07/12 09:36:21;;;;;;;2.42;1.30;;;;;;;;;;6230494;28;20551;-73
2023/07/12 09:39:21;;;;;;;1.93;1.20;;;;;;;;;;6237620;28;21289;-72
2023/07/12 09:42:22;;;;;;;1.45;1.10;;;;;;;;;;6239759;28;20021;-73
2023/07/12 09:45:24;;;;;;;1.63;1.30;;;;;;;;;;6240648;28;20441;-73
2023/07/12 09:48:25;;;;;;;4.07;1.30;;;;;;;;;;6238452;28;20072;-72
2023/07/12 09:51:33;;;;;;;1.50;1.08;;;;;;;;;;6241208;28;20455;-73
2023/07/12 09:54:39;;;;;;;1.10;0.93;;;;;;;;;;6238304;28;20036;-72
2023/07/12 09:57:51;;;;;;;1.80;1.13;;;;;;;;;;6239709;28;20079;-73
2023/07/12 10:01:04;;;;;;;1.80;1.02;;;;;;;;;;6234868;28;20026;-72
2023/07/12 10:04:09;;;;;;;2.05;1.13;;;;;;;;;;6245238;28;20072;-71
2023/07/12 10:07:15;;;;;;;1.42;1.20;;;;;;;;;;6233827;28;20017;-72
2023/07/12 10:10:21;;;;;;;1.90;1.20;;;;;;;;;;6240574;28;20027;-75
2023/07/12 10:13:36;;;;;;;1.08;0.98;;;;;;;;;;6239344;28;20014;-73
2023/07/12 10:16:47;;;;;;;1.42;1.10;;;;;;;;;;6241351;28;20428;-74
2023/07/12 10:19:52;;;;;;;1.70;1.05;;;;;;;;;;6244547;28;20025;-74
2023/07/12 10:22:53;;;;;;;1.20;0.93;;;;;;;;;;6245819;28;20017;-74
2023/07/12 10:25:57;;;;;;;1.67;1.10;;;;;;;;;;6242628;28;20532;-74
2023/07/12 10:29:00;;;;;;;1.95;0.90;;;;;;;;;;6248469;28;20018;-72
2023/07/12 10:32:01;;;;;;;1.40;1.17;;;;;;;;;;6248429;28;20013;-73
2023/07/12 10:35:07;;;;;;;1.25;0.90;;;;;;;;;;6248244;28;20468;-73
2023/07/12 10:38:15;;;;;;;1.40;1.00;;;;;;;;;;6239684;28;20029;-73
2023/07/12 10:41:19;;;;;;;1.10;1.00;;;;;;;;;;6248038;28;20116;-73
2023/07/12 10:44:21;;;;;;;1.92;0.95;;;;;;;;;;6246601;28;20033;-73
2023/07/12 10:47:23;;;;;;;3.28;1.38;;;;;;;;;;6246346;28;20052;-74
2023/07/12 10:50:33;;;;;;;4.20;1.42;;;;;;;;;;6239002;28;20041;-74
2023/07/12 10:53:46;;;;;;;1.20;1.10;;;;;;;;;;6239147;28;20108;-73
2023/07/12 10:56:53;;;;;;;1.55;1.25;;;;;;;;;;6238661;28;20115;-71
2023/07/12 11:00:17;;;;;;;1.40;1.30;;;;;;;;;;6248806;28;20033;-74
2023/07/12 11:03:31;;;;;;;1.83;1.40;;;;;;;;;;6258374;28;20056;-74
2023/07/12 11:06:32;;;;;;;2.35;1.27;;;;;;;;;;6247535;28;20020;-74
2023/07/12 11:09:47;;;;;;;1.50;1.35;;;;;;;;;;6247652;28;20013;-74
2023/07/12 11:12:50;;;;;;;1.42;1.00;;;;;;;;;;6241515;28;20500;-74
2023/07/12 11:15:57;;;;;;;1.50;1.33;;;;;;;;;;6238684;28;20037;-72
2023/07/12 11:18:57;;;;;;;2.03;1.20;;;;;;;;;;6247407;28;20059;-72
2023/07/12 11:22:02;;;;;;;1.23;1.13;;;;;;;;;;6247431;28;20021;-71
2023/07/12 11:25:21;;;;;;;2.38;1.30;;;;;;;;;;6247718;28;20025;-72
2023/07/12 11:28:22;;;;;;;1.40;1.13;;;;;;;;;;6241971;28;20040;-73
2023/07/12 11:31:26;;;;;;;1.45;1.33;;;;;;;;;;6247919;28;20014;-72
2023/07/12 11:34:26;;;;;;;2.10;1.30;;;;;;;;;;6246605;28;20120;-73
2023/07/12 11:37:47;;;;;;;1.50;1.17;;;;;;;;;;6245142;28;20025;-73
2023/07/12 11:40:50;;;;;;;2.28;1.48;;;;;;;;;;6250296;28;20030;-72
2023/07/12 11:44:04;;;;;;;1.75;1.20;;;;;;;;;;6246542;28;20386;-74
2023/07/12 11:47:04;;;;;;;1.50;1.40;;;;;;;;;;6248930;28;20089;-73
2023/07/12 11:50:05;;;;;;;2.13;1.33;;;;;;;;;;6251588;28;20014;-73
2023/07/12 11:53:05;;;;;;;1.85;1.25;;;;;;;;;;6242420;28;20014;-73
2023/07/12 11:56:13;;;;;;;1.60;1.30;;;;;;;;;;6249939;28;20419;-72
2023/07/12 11:59:14;;;;;;;1.75;1.48;;;;;;;;;;6247565;28;20272;-74
2023/07/12 12:02:16;;;;;;;1.92;1.27;;;;;;;;;;6255085;28;20048;-73
2023/07/12 12:05:24;;;;;;;1.70;1.60;;;;;;;;;;6259305;28;20025;-73
2023/07/12 12:08:26;;;;;;;1.70;1.30;;;;;;;;;;6256357;28;21224;-73
2023/07/12 12:11:28;;;;;;;1.50;1.27;;;;;;;;;;6252995;28;20448;-73
2023/07/12 12:14:37;;;;;;;2.20;1.40;;;;;;;;;;6251034;28;20085;-74
2023/07/12 12:17:37;;;;;;;1.77;1.50;;;;;;;;;;6253605;28;20069;-73
2023/07/12 12:20:38;;;;;;;1.40;1.30;;;;;;;;;;6254449;28;20413;-74
2023/07/12 12:23:40;;;;;;;2.35;1.50;;;;;;;;;;6250846;28;20041;-73
2023/07/12 12:26:41;;;;;;;1.55;1.40;;;;;;;;;;6242317;28;20040;-73
2023/07/12 12:29:42;;;;;;;1.63;1.30;;;;;;;;;;6242017;28;20116;-73
2023/07/12 12:32:54;;;;;;;1.20;1.15;;;;;;;;;;6246015;28;20557;-73
2023/07/12 12:36:02;;;;;;;2.38;1.40;;;;;;;;;;6253524;28;20052;-73
2023/07/12 12:39:05;;;;;;;;;;;;;;;;;;6253567;28;20084;-72
2023/07/12 12:42:25;;;;;;;2.10;1.40;;;;;;;;;;6241573;28;19936;-73
2023/07/12 12:45:27;;;;;;;1.45;1.25;;;;;;;;;;6245000;28;20077;-74
2023/07/12 12:48:28;;;;;;;2.17;1.50;;;;;;;;;;6229503;28;20064;-74
2023/07/12 12:51:30;;;;;;;2.47;1.50;;;;;;;;;;6246334;28;20400;-74
2023/07/12 12:54:30;;;;;;;4.28;1.60;;;;;;;;;;6246333;28;20038;-73
2023/07/12 12:57:31;;;;;;;2.77;1.37;;;;;;;;;;6245787;28;20498;-74
2023/07/12 13:00:31;;;;;;;1.88;1.60;;;;;;;;;;6240291;28;20026;-73
2023/07/12 13:03:31;;;;;;;2.43;1.50;;;;;;;;;;6242776;28;20466;-73
2023/07/12 13:06:32;;;;;;;1.67;1.57;;;;;;;;;;6239652;28;20025;-72
2023/07/12 13:09:32;;;;;;;1.95;1.63;;;;;;;;;;6247162;28;20087;-74
2023/07/12 13:12:34;;;;;;;2.20;1.67;;;;;;;;;;6235088;28;20013;-74
2023/07/12 13:15:35;;;;;;;1.92;1.50;;;;;;;;;;6238258;28;20030;-74
2023/07/12 13:18:35;;;;;;;2.57;1.53;;;;;;;;;;6245395;28;20021;-74
2023/07/12 13:21:35;;;;;;;1.73;1.63;;;;;;;;;;6245801;28;20033;-74
2023/07/12 13:24:35;;;;;;;1.80;1.70;;;;;;;;;;6238881;28;20033;-74
2023/07/12 13:27:37;;;;;;;2.30;1.57;;;;;;;;;;6242293;28;20035;-73
2023/07/12 13:30:38;;;;;;;1.98;1.60;;;;;;;;;;6244968;28;20079;-74
2023/07/12 13:33:38;;;;;;;3.15;2.08;;;;;;;;;;6238783;28;20569;-73
2023/07/12 13:36:39;;;;;;;4.10;1.90;;;;;;;;;;6242046;28;20018;-73
2023/07/12 13:39:40;;;;;;;3.72;1.88;;;;;;;;;;6237953;28;20111;-72
2023/07/12 13:42:44;;;;;;;4.17;1.70;;;;;;;;;;6244203;28;20076;-73
2023/07/12 13:45:44;;;;;;;2.80;1.90;;;;;;;;;;6240989;28;20036;-73
2023/07/12 13:48:45;;;;;;;1.50;1.33;;;;;;;;;;6240372;28;20021;-72
2023/07/12 13:51:45;;;;;;;1.97;1.50;;;;;;;;;;6242153;28;20057;-73
2023/07/12 13:54:46;;;;;;;1.95;1.70;;;;;;;;;;6242095;28;20100;-73
2023/07/12 13:57:46;;;;;;;3.13;1.85;;;;;;;;;;6240340;28;20159;-73
2023/07/12 14:00:48;;;;;;;2.83;1.60;;;;;;;;;;6244962;28;20017;-73
2023/07/12 14:03:48;;;;;;;2.47;1.73;;;;;;;;;;6247049;28;20024;-72
2023/07/12 14:06:48;;;;;;;2.07;1.50;;;;;;;;;;6242722;28;20021;-73
2023/07/12 14:09:48;;;;;;;2.10;1.60;;;;;;;;;;6245906;28;20482;-73
2023/07/12 14:12:49;;;;;;;3.53;1.97;;;;;;;;;;6238389;28;20038;-73
2023/07/12 14:15:49;;;;;;;2.93;1.87;;;;;;;;;;6239244;28;20041;-73
2023/07/12 14:18:49;;;;;;;2.67;1.60;;;;;;;;;;6241159;28;20272;-73
2023/07/12 14:21:50;;;;;;;2.35;1.80;;;;;;;;;;6240592;28;20059;-73
2023/07/12 14:24:50;;;;;;;6.53;2.30;;;;;;;;;;6235370;28;20034;-74
2023/07/12 14:27:51;;;;;;;3.28;1.70;;;;;;;;;;6239768;28;20029;-73
2023/07/12 14:30:52;;;;;;;3.33;1.67;;;;;;;;;;6251687;28;20021;-74
2023/07/12 14:33:52;;;;;;;3.38;1.70;;;;;;;;;;6252695;28;20508;-74
2023/07/12 14:36:53;;;;;;;3.95;1.88;;;;;;;;;;6247592;28;20049;-73
2023/07/12 14:39:54;;;;;;;2.13;1.93;;;;;;;;;;6247694;28;20386;-74
2023/07/12 14:42:54;;;;;;;3.22;2.00;;;;;;;;;;6237856;28;20018;-72
2023/07/12 14:45:54;;;;;;;2.20;2.00;;;;;;;;;;6238871;28;20377;-73
2023/07/12 14:48:54;;;;;;;2.30;2.07;;;;;;;;;;6238777;28;20029;-73
2023/07/12 14:51:54;;;;;;;2.20;2.00;;;;;;;;;;6239630;28;20037;-72
2023/07/12 14:54:56;;;;;;;2.77;1.90;;;;;;;;;;6239856;28;20027;-73
2023/07/12 14:57:56;;;;;;;4.22;2.08;;;;;;;;;;6231963;28;20022;-73
2023/07/12 15:00:57;;;;;;;3.17;2.10;;;;;;;;;;6238693;28;20382;-73
2023/07/12 15:04:00;;;;;;;2.10;1.90;;;;;;;;;;6238168;28;20017;-73
2023/07/12 15:07:00;;;;;;;2.22;1.60;;;;;;;;;;6242536;28;20030;-73
2023/07/12 15:10:03;;;;;;;2.30;2.00;;;;;;;;;;6243463;28;20516;-71
2023/07/12 15:13:04;;;;;;;3.05;1.83;;;;;;;;;;6240984;28;20032;-73
2023/07/12 15:16:04;;;;;;;1.85;1.60;;;;;;;;;;6241808;28;20022;-72
2023/07/12 15:19:04;;;;;;;2.20;1.70;;;;;;;;;;6241730;28;20049;-73
2023/07/12 15:22:11;;;;;;;2.00;1.80;;;;;;;;;;6238145;28;20028;-73
2023/07/12 15:25:24;;;;;;;2.00;1.50;;;;;;;;;;6236553;28;20503;-72
2023/07/12 15:28:25;;;;;;;2.22;1.75;;;;;;;;;;6233253;28;20471;-72
2023/07/12 15:31:28;;;;;;;1.80;1.50;;;;;;;;;;6242509;28;20034;-73
2023/07/12 15:34:29;;;;;;;2.28;1.13;;;;;;;;;;6243357;28;20014;-72
2023/07/12 15:37:29;;;;;;;3.60;1.50;;;;;;;;;;6241528;28;21000;-72
2023/07/12 15:41:07;;;;;;;2.50;1.43;;;;;;;;;;6242040;28;20033;-71
2023/07/12 15:44:08;;;;;;;;;;;;;;;;;;6165958;28;20433;-70
2023/07/12 15:47:12;;;;;;;3.88;1.30;;;;;;;;;;6167030;28;19921;-71
2023/07/12 15:50:14;;;;;;;1.98;1.33;;;;;;;;;;6234826;28;20041;-72
2023/07/12 15:53:19;;;;;;;1.60;1.45;;;;;;;;;;6241036;28;20458;-72
2023/07/12 15:56:20;;;;;;;1.65;1.27;;;;;;;;;;6239024;28;20030;-70
2023/07/12 15:59:26;;;;;;;1.63;1.20;;;;;;;;;;6235977;28;20100;-72
2023/07/12 16:02:28;;;;;;;2.30;1.30;;;;;;;;;;6244942;28;20094;-71
2023/07/12 16:05:28;;;;;;;3.40;1.60;;;;;;;;;;6240649;28;20029;-72
2023/07/12 16:08:29;;;;;;;1.70;1.45;;;;;;;;;;6250376;28;20028;-72
2023/07/12 16:11:34;;;;;;;1.77;1.30;;;;;;;;;;6239328;28;20064;-73
2023/07/12 16:14:35;;;;;;;1.83;1.63;;;;;;;;;;6236342;28;20033;-72
2023/07/12 16:17:36;;;;;;;2.50;1.65;;;;;;;;;;6241044;28;20560;-72
2023/07/12 16:20:36;;;;;;;4.65;1.60;;;;;;;;;;6240867;28;20018;-73
2023/07/12 16:23:37;;;;;;;2.40;1.27;;;;;;;;;;6241897;28;20029;-72
2023/07/12 16:26:38;;;;;;;1.10;1.00;;;;;;;;;;6235462;28;20037;-71
2023/07/12 16:29:39;;;;;;;2.45;1.50;;;;;;;;;;6239019;28;20442;-72
2023/07/12 16:32:41;;;;;;;1.55;1.10;;;;;;;;;;6239615;28;20032;-72
2023/07/12 16:35:41;;;;;;;1.60;1.38;;;;;;;;;;6240685;28;20052;-71
2023/07/12 16:38:42;;;;;;;1.57;1.10;;;;;;;;;;6241636;28;20043;-71
2023/07/12 16:41:43;;;;;;;1.33;1.20;;;;;;;;;;6237415;28;20271;-71
2023/07/12 16:44:43;;;;;;;2.95;1.33;;;;;;;;;;6238986;28;20029;-72
2023/07/12 16:47:43;;;;;;;1.20;1.10;;;;;;;;;;6239378;28;20379;-70
2023/07/12 16:50:44;;;;;;;1.73;1.30;;;;;;;;;;6236700;28;20017;-72
2023/07/12 16:53:45;;;;;;;1.42;1.02;;;;;;;;;;6236539;28;20014;-70
2023/07/12 16:56:45;;;;;;;1.40;1.00;;;;;;;;;;6233615;28;20462;-70
2023/07/12 16:59:48;;;;;;;1.43;0.90;;;;;;;;;;6228311;28;20268;-68
2023/07/12 17:02:49;;;;;;;3.05;1.17;;;;;;;;;;6225831;28;20171;-72
2023/07/12 17:05:49;;;;;;;1.00;0.90;;;;;;;;;;6226764;28;20378;-71
2023/07/12 17:08:50;;;;;;;1.00;0.90;;;;;;;;;;6236824;28;20112;-68
2023/07/12 17:11:52;;;;;;;0.93;0.80;;;;;;;;;;6231030;28;20086;-70
2023/07/12 17:14:52;;;;;;;1.63;0.98;;;;;;;;;;6222206;28;21403;-69
2023/07/12 17:17:55;;;;;;;1.45;1.02;;;;;;;;;;6230892;28;20056;-69
2023/07/12 17:20:55;;;;;;;1.42;1.00;;;;;;;;;;6232083;28;20102;-70
2023/07/12 17:23:56;;;;;;;1.00;0.85;;;;;;;;;;6229366;28;20013;-69
2023/07/12 17:26:56;;;;;;;1.45;1.35;;;;;;;;;;6228364;28;20028;-71
2023/07/12 17:29:56;;;;;;;1.27;0.90;;;;;;;;;;6223819;28;20502;-70
2023/07/12 17:32:58;;;;;;;1.17;1.00;;;;;;;;;;6217905;28;20817;-70
2023/07/12 17:35:58;;;;;;;1.30;1.10;;;;;;;;;;5880228;28;10000588;-73
2023/07/12 17:38:58;;;;;;;1.07;0.93;;;;;;;;;;6228702;28;20079;-74
2023/07/12 17:41:58;;;;;;;1.10;1.00;;;;;;;;;;6227267;28;20351;-63
2023/07/12 17:45:00;;;;;;;1.90;1.00;;;;;;;;;;6227203;28;20091;-67
2023/07/12 17:48:00;;;;;;;1.25;0.95;;;;;;;;;;6224909;28;20036;-63
2023/07/12 17:51:03;;;;;;;2.47;1.10;;;;;;;;;;6229189;28;20025;-64
2023/07/12 17:54:03;;;;;;;1.58;1.00;;;;;;;;;;6233072;28;20036;-67
2023/07/12 17:57:04;;;;;;;2.47;1.20;;;;;;;;;;6233126;28;20014;-65
2023/07/12 18:00:08;;;;;;;1.15;1.00;;;;;;;;;;6224818;28;20060;-67
2023/07/12 18:03:13;;;;;;;1.00;0.90;;;;;;;;;;6234464;28;20056;-66
2023/07/12 18:06:18;;;;;;;2.22;1.15;;;;;;;;;;6230800;28;20021;-64
2023/07/12 18:09:19;;;;;;;2.95;1.45;;;;;;;;;;6222800;28;20559;-65